createdAt,value
2019-05-11T00:00:38.163Z,0.00
2019-05-11T00:01:38.159Z,0.00
2019-05-11T00:02:38.151Z,0.00
2019-05-11T00:03:38.136Z,0.00
2019-05-11T00:04:38.123Z,0.00
2019-05-11T00:05:38.109Z,0.00
2019-05-11T00:06:38.107Z,0.00
2019-05-11T00:07:38.099Z,0.00
2019-05-11T00:08:38.087Z,0.00
2019-05-11T00:09:38.066Z,0.00
2019-05-11T00:10:38.055Z,0.00
2019-05-11T00:11:38.043Z,0.00
2019-05-11T00:12:38.033Z,0.00
2019-05-11T00:13:38.051Z,0.00
2019-05-11T00:14:38.025Z,0.00
2019-05-11T00:15:38.001Z,0.00
2019-05-11T00:16:37.991Z,0.00
2019-05-11T00:17:37.980Z,0.00
2019-05-11T00:18:37.969Z,0.00
2019-05-11T00:19:37.970Z,0.00
2019-05-11T00:20:37.958Z,0.00
2019-05-11T00:21:37.937Z,0.00
2019-05-11T00:22:37.929Z,0.00
2019-05-11T00:23:37.917Z,0.00
2019-05-11T00:24:37.906Z,0.00
2019-05-11T00:25:37.907Z,0.00
2019-05-11T00:26:37.899Z,0.00
2019-05-11T00:27:37.873Z,0.00
2019-05-11T00:28:37.862Z,0.00
2019-05-11T00:29:37.851Z,0.00
2019-05-11T00:30:37.861Z,0.00
2019-05-11T00:31:37.845Z,0.00
2019-05-11T00:32:37.829Z,0.00
2019-05-11T00:33:37.808Z,0.00
2019-05-11T00:34:37.798Z,0.00
2019-05-11T00:35:37.786Z,0.00
2019-05-11T00:36:37.777Z,0.00
2019-05-11T00:37:37.790Z,0.00
2019-05-11T00:38:37.766Z,0.00
2019-05-11T00:39:37.744Z,0.00
2019-05-11T00:40:37.732Z,0.00
2019-05-11T00:41:37.775Z,0.00
2019-05-11T00:42:37.710Z,0.00
2019-05-11T00:43:37.727Z,0.00
2019-05-11T00:44:37.702Z,0.00
2019-05-11T00:45:37.701Z,0.00
2019-05-11T00:46:37.669Z,0.00
2019-05-11T00:47:37.658Z,0.00
2019-05-11T00:48:37.658Z,0.00
2019-05-11T00:49:37.648Z,0.00
2019-05-11T00:50:39.771Z,0.00
2019-05-11T00:51:37.616Z,0.00
2019-05-11T00:52:37.603Z,0.00
2019-05-11T00:53:37.596Z,0.00
2019-05-11T00:54:37.582Z,0.00
2019-05-11T00:55:37.584Z,0.00
2019-05-11T00:56:37.571Z,0.00
2019-05-11T00:57:37.551Z,0.00
2019-05-11T00:58:37.542Z,0.00
2019-05-11T00:59:37.528Z,0.00
2019-05-11T01:00:37.521Z,0.00
2019-05-11T01:01:37.525Z,0.00
2019-05-11T01:02:37.514Z,0.00
2019-05-11T01:03:37.485Z,0.00
2019-05-11T01:04:37.474Z,0.00
2019-05-11T01:05:37.487Z,0.00
2019-05-11T01:06:37.455Z,0.00
2019-05-11T01:07:37.454Z,0.00
2019-05-11T01:08:37.447Z,0.00
2019-05-11T01:09:37.493Z,0.00
2019-05-11T01:10:42.283Z,0.00
2019-05-11T01:11:38.399Z,0.00
2019-05-11T01:12:37.391Z,0.00
2019-05-11T01:13:37.390Z,0.00
2019-05-11T01:14:37.385Z,0.00
2019-05-11T01:15:37.358Z,0.00
2019-05-11T01:16:37.347Z,0.00
2019-05-11T01:17:37.336Z,0.00
2019-05-11T01:18:37.323Z,0.00
2019-05-11T01:19:37.323Z,0.00
2019-05-11T01:20:37.317Z,0.00
2019-05-11T01:21:37.303Z,0.00
2019-05-11T01:22:37.281Z,0.00
2019-05-11T01:23:37.270Z,0.00
2019-05-11T01:24:37.259Z,0.00
2019-05-11T01:25:37.258Z,0.00
2019-05-11T01:26:37.248Z,0.00
2019-05-11T01:27:37.230Z,0.00
2019-05-11T01:28:37.263Z,0.00
2019-05-11T01:29:37.210Z,0.00
2019-05-11T01:30:38.835Z,0.00
2019-05-11T01:31:37.195Z,0.00
2019-05-11T01:32:37.197Z,0.00
2019-05-11T01:33:37.165Z,0.00
2019-05-11T01:34:37.152Z,0.00
2019-05-11T01:35:37.144Z,0.00
2019-05-11T01:36:37.130Z,0.00
2019-05-11T01:37:37.137Z,0.00
2019-05-11T01:38:37.128Z,0.00
2019-05-11T01:39:37.098Z,0.00
2019-05-11T01:40:37.087Z,0.00
2019-05-11T01:41:37.076Z,0.00
2019-05-11T01:42:37.065Z,0.00
2019-05-11T01:43:37.068Z,0.00
2019-05-11T01:44:37.056Z,0.00
2019-05-11T01:45:37.033Z,0.00
2019-05-11T01:46:37.024Z,0.00
2019-05-11T01:47:37.011Z,0.00
2019-05-11T01:48:37.005Z,0.00
2019-05-11T01:49:37.008Z,0.00
2019-05-11T01:50:36.992Z,0.00
2019-05-11T01:51:36.967Z,0.00
2019-05-11T01:52:36.957Z,0.00
2019-05-11T01:53:36.946Z,0.00
2019-05-11T01:54:36.935Z,0.00
2019-05-11T01:55:36.935Z,0.00
2019-05-11T01:56:36.925Z,0.00
2019-05-11T01:57:36.904Z,0.00
2019-05-11T01:58:36.892Z,0.00
2019-05-11T01:59:36.880Z,0.00
2019-05-11T02:00:36.871Z,0.00
2019-05-11T02:01:36.866Z,0.00
2019-05-11T02:02:36.860Z,0.00
2019-05-11T02:03:36.845Z,0.00
2019-05-11T02:04:36.827Z,0.00
2019-05-11T02:05:36.842Z,0.00
2019-05-11T02:06:36.805Z,0.00
2019-05-11T02:07:36.804Z,0.00
2019-05-11T02:08:36.799Z,0.00
2019-05-11T02:09:36.779Z,0.00
2019-05-11T02:10:36.761Z,0.00
2019-05-11T02:11:36.751Z,0.00
2019-05-11T02:12:36.740Z,0.00
2019-05-11T02:13:36.738Z,0.00
2019-05-11T02:14:36.728Z,0.00
2019-05-11T02:15:36.718Z,0.00
2019-05-11T02:16:36.711Z,0.00
2019-05-11T02:17:36.684Z,0.00
2019-05-11T02:18:36.675Z,0.00
2019-05-11T02:19:36.673Z,0.00
2019-05-11T02:20:36.670Z,0.00
2019-05-11T02:21:36.644Z,0.00
2019-05-11T02:22:36.631Z,0.00
2019-05-11T02:23:36.625Z,0.00
2019-05-11T02:24:36.609Z,0.00
2019-05-11T02:25:36.617Z,0.00
2019-05-11T02:26:36.597Z,0.00
2019-05-11T02:27:36.576Z,0.00
2019-05-11T02:28:36.566Z,0.00
2019-05-11T02:29:36.555Z,0.00
2019-05-11T02:30:36.548Z,0.00
2019-05-11T02:31:36.542Z,0.00
2019-05-11T02:32:36.557Z,0.00
2019-05-11T02:33:36.512Z,0.00
2019-05-11T02:34:36.500Z,0.00
2019-05-11T02:35:36.490Z,0.00
2019-05-11T02:36:36.480Z,0.00
2019-05-11T02:37:36.476Z,0.00
2019-05-11T02:38:36.471Z,0.00
2019-05-11T02:39:36.446Z,0.00
2019-05-11T02:40:36.434Z,0.00
2019-05-11T02:41:37.572Z,0.00
2019-05-11T02:42:36.414Z,0.00
2019-05-11T02:43:36.420Z,0.00
2019-05-11T02:44:36.410Z,0.00
2019-05-11T02:45:36.380Z,0.00
2019-05-11T02:46:36.371Z,0.00
2019-05-11T02:47:36.363Z,0.00
2019-05-11T02:48:36.361Z,0.00
2019-05-11T02:49:36.354Z,0.00
2019-05-11T02:50:36.341Z,0.00
2019-05-11T02:51:36.315Z,0.00
2019-05-11T02:52:36.306Z,0.00
2019-05-11T02:53:36.293Z,0.00
2019-05-11T02:54:36.284Z,0.00
2019-05-11T02:55:36.287Z,0.00
2019-05-11T02:56:36.280Z,0.00
2019-05-11T02:57:36.250Z,0.00
2019-05-11T02:58:36.240Z,0.00
2019-05-11T02:59:36.231Z,0.00
2019-05-11T03:00:36.220Z,0.00
2019-05-11T03:01:36.221Z,0.00
2019-05-11T03:02:36.208Z,0.00
2019-05-11T03:03:36.187Z,0.00
2019-05-11T03:04:36.175Z,0.00
2019-05-11T03:05:36.164Z,0.00
2019-05-11T03:06:36.153Z,0.00
2019-05-11T03:07:36.152Z,0.00
2019-05-11T03:08:36.146Z,0.00
2019-05-11T03:09:36.121Z,0.00
2019-05-11T03:10:36.110Z,0.00
2019-05-11T03:11:54.220Z,0.00
2019-05-11T03:12:37.087Z,0.00
2019-05-11T03:13:36.090Z,0.00
2019-05-11T03:14:36.077Z,0.00
2019-05-11T03:15:36.055Z,0.00
2019-05-11T03:16:36.045Z,0.00
2019-05-11T03:17:36.034Z,0.00
2019-05-11T03:18:36.025Z,0.00
2019-05-11T03:19:36.024Z,4.00
2019-05-11T03:20:36.059Z,4.00
2019-05-11T03:21:35.990Z,0.00
2019-05-11T03:22:35.985Z,0.00
2019-05-11T03:23:35.970Z,4.00
2019-05-11T03:24:35.967Z,4.00
2019-05-11T03:25:35.960Z,4.00
2019-05-11T03:26:35.945Z,4.00
2019-05-11T03:27:35.925Z,4.00
2019-05-11T03:28:35.919Z,4.00
2019-05-11T03:29:35.904Z,4.00
2019-05-11T03:30:35.897Z,4.00
2019-05-11T03:31:35.908Z,8.00
2019-05-11T03:32:35.886Z,8.00
2019-05-11T03:33:35.869Z,8.00
2019-05-11T03:34:35.853Z,8.00
2019-05-11T03:35:35.849Z,12.00
2019-05-11T03:36:35.835Z,12.00
2019-05-11T03:37:35.832Z,12.00
2019-05-11T03:38:35.825Z,12.00
2019-05-11T03:39:35.799Z,12.00
2019-05-11T03:40:35.788Z,16.00
2019-05-11T03:41:35.853Z,12.00
2019-05-11T03:42:35.767Z,16.00
2019-05-11T03:43:35.767Z,16.00
2019-05-11T03:44:35.760Z,16.00
2019-05-11T03:45:35.735Z,16.00
2019-05-11T03:46:35.724Z,20.00
2019-05-11T03:47:35.713Z,20.00
2019-05-11T03:48:35.703Z,20.00
2019-05-11T03:49:35.702Z,24.00
2019-05-11T03:50:35.695Z,20.00
2019-05-11T03:51:35.689Z,24.00
2019-05-11T03:52:35.660Z,24.00
2019-05-11T03:53:35.650Z,32.00
2019-05-11T03:54:35.640Z,28.00
2019-05-11T03:55:35.641Z,32.00
2019-05-11T03:56:35.629Z,36.00
2019-05-11T03:57:35.607Z,40.00
2019-05-11T03:58:35.596Z,40.00
2019-05-11T03:59:35.584Z,48.00
2019-05-11T04:00:35.574Z,44.00
2019-05-11T04:01:35.577Z,52.00
2019-05-11T04:02:35.569Z,60.00
2019-05-11T04:03:35.544Z,64.00
2019-05-11T04:04:35.535Z,68.00
2019-05-11T04:05:35.520Z,76.00
2019-05-11T04:06:35.509Z,84.00
2019-05-11T04:07:35.520Z,92.00
2019-05-11T04:08:35.507Z,96.00
2019-05-11T04:09:35.479Z,104.00
2019-05-11T04:10:35.470Z,112.00
2019-05-11T04:11:35.456Z,124.00
2019-05-11T04:12:35.805Z,132.00
2019-05-11T04:13:35.446Z,140.00
2019-05-11T04:14:35.435Z,140.00
2019-05-11T04:15:35.413Z,144.00
2019-05-11T04:16:35.401Z,148.00
2019-05-11T04:17:35.396Z,156.00
2019-05-11T04:18:35.381Z,160.00
2019-05-11T04:19:35.380Z,168.00
2019-05-11T04:20:35.372Z,172.00
2019-05-11T04:21:35.349Z,172.00
2019-05-11T04:22:35.340Z,184.00
2019-05-11T04:23:35.327Z,200.00
2019-05-11T04:24:35.327Z,216.00
2019-05-11T04:25:35.307Z,240.00
2019-05-11T04:26:35.309Z,256.00
2019-05-11T04:27:35.286Z,272.00
2019-05-11T04:28:35.274Z,284.00
2019-05-11T04:29:35.272Z,292.00
2019-05-11T04:30:35.265Z,312.00
2019-05-11T04:31:35.246Z,324.00
2019-05-11T04:32:35.244Z,336.00
2019-05-11T04:33:35.219Z,340.00
2019-05-11T04:34:35.210Z,356.00
2019-05-11T04:35:35.198Z,364.00
2019-05-11T04:36:35.202Z,376.00
2019-05-11T04:37:35.177Z,384.00
2019-05-11T04:38:35.179Z,388.00
2019-05-11T04:39:35.158Z,388.00
2019-05-11T04:40:35.144Z,400.00
2019-05-11T04:41:35.139Z,420.00
2019-05-11T04:42:53.247Z,444.00
2019-05-11T04:43:36.123Z,468.00
2019-05-11T04:44:35.102Z,484.00
2019-05-11T04:45:35.092Z,496.00
2019-05-11T04:46:35.079Z,528.00
2019-05-11T04:47:35.069Z,544.00
2019-05-11T04:48:35.072Z,576.00
2019-05-11T04:49:35.058Z,604.00
2019-05-11T04:50:35.036Z,624.00
2019-05-11T04:51:35.026Z,652.00
2019-05-11T04:52:35.015Z,716.00
2019-05-11T04:53:35.005Z,796.00
2019-05-11T04:54:35.016Z,812.00
2019-05-11T04:55:35.059Z,824.00
2019-05-11T04:56:34.971Z,864.00
2019-05-11T04:57:34.962Z,860.00
2019-05-11T04:58:34.950Z,844.00
2019-05-11T04:59:34.955Z,916.00
2019-05-11T05:00:34.945Z,904.00
2019-05-11T05:01:34.929Z,916.00
2019-05-11T05:02:34.944Z,916.00
2019-05-11T05:03:40.883Z,920.00
2019-05-11T05:04:35.883Z,872.00
2019-05-11T05:05:34.879Z,868.00
2019-05-11T05:06:34.875Z,836.00
2019-05-11T05:07:34.864Z,796.00
2019-05-11T05:08:34.842Z,784.00
2019-05-11T05:09:36.238Z,812.00
2019-05-11T05:10:35.820Z,856.00
2019-05-11T05:11:36.779Z,856.00
2019-05-11T05:12:34.811Z,896.00
2019-05-11T05:13:34.804Z,992.00
2019-05-11T05:14:34.776Z,1124.00
2019-05-11T05:15:34.765Z,1184.00
2019-05-11T05:16:34.759Z,1140.00
2019-05-11T05:17:34.744Z,1196.00
2019-05-11T05:18:34.747Z,1228.00
2019-05-11T05:19:34.733Z,1300.00
2019-05-11T05:20:34.711Z,1368.00
2019-05-11T05:21:34.701Z,1436.00
2019-05-11T05:22:34.689Z,1448.00
2019-05-11T05:23:34.678Z,1476.00
2019-05-11T05:24:34.675Z,1564.00
2019-05-11T05:25:34.666Z,1656.00
2019-05-11T05:26:34.646Z,1800.00
2019-05-11T05:27:34.635Z,1956.00
2019-05-11T05:28:34.623Z,2116.00
2019-05-11T05:29:34.612Z,2184.00
2019-05-11T05:30:34.615Z,2244.00
2019-05-11T05:31:34.601Z,2284.00
2019-05-11T05:32:34.581Z,2224.00
2019-05-11T05:33:34.569Z,2072.00
2019-05-11T05:34:34.558Z,1892.00
2019-05-11T05:35:34.547Z,1756.00
2019-05-11T05:36:34.550Z,1684.00
2019-05-11T05:37:34.538Z,1628.00
2019-05-11T05:38:34.515Z,1560.00
2019-05-11T05:39:34.503Z,1500.00
2019-05-11T05:40:34.494Z,1472.00
2019-05-11T05:41:35.311Z,1456.00
2019-05-11T05:42:34.478Z,1460.00
2019-05-11T05:43:34.470Z,1528.00
2019-05-11T05:44:34.450Z,1592.00
2019-05-11T05:45:34.439Z,1588.00
2019-05-11T05:46:34.432Z,1588.00
2019-05-11T05:47:34.416Z,1688.00
2019-05-11T05:48:34.415Z,1760.00
2019-05-11T05:49:34.405Z,1816.00
2019-05-11T05:50:34.384Z,1860.00
2019-05-11T05:51:34.375Z,1904.00
2019-05-11T05:52:34.362Z,1932.00
2019-05-11T05:53:34.362Z,2004.00
2019-05-11T05:54:34.349Z,2068.00
2019-05-11T05:55:34.340Z,2144.00
2019-05-11T05:56:34.319Z,2224.00
2019-05-11T05:57:34.308Z,2284.00
2019-05-11T05:58:34.307Z,2368.00
2019-05-11T05:59:34.301Z,2528.00
2019-05-11T06:00:34.278Z,2676.00
2019-05-11T06:01:34.286Z,2804.00
2019-05-11T06:02:34.261Z,2872.00
2019-05-11T06:03:34.244Z,2848.00
2019-05-11T06:04:34.238Z,2732.00
2019-05-11T06:05:34.236Z,2540.00
2019-05-11T06:06:34.214Z,2428.00
2019-05-11T06:07:34.213Z,2364.00
2019-05-11T06:08:34.192Z,2304.00
2019-05-11T06:09:34.184Z,2244.00
2019-05-11T06:10:34.174Z,2216.00
2019-05-11T06:11:34.168Z,2204.00
2019-05-11T06:12:34.153Z,2196.00
2019-05-11T06:13:44.582Z,2212.00
2019-05-11T06:14:35.130Z,2240.00
2019-05-11T06:15:34.119Z,2256.00
2019-05-11T06:16:34.107Z,2312.00
2019-05-11T06:17:34.107Z,2448.00
2019-05-11T06:18:34.087Z,2600.00
2019-05-11T06:19:34.085Z,2808.00
2019-05-11T06:20:34.066Z,3048.00
2019-05-11T06:21:34.054Z,3144.00
2019-05-11T06:22:34.043Z,3208.00
2019-05-11T06:23:34.042Z,3236.00
2019-05-11T06:24:34.023Z,3260.00
2019-05-11T06:25:34.029Z,3388.00
2019-05-11T06:26:34.007Z,3524.00
2019-05-11T06:27:33.992Z,3532.00
2019-05-11T06:28:33.983Z,3600.00
2019-05-11T06:29:33.980Z,3612.00
2019-05-11T06:30:33.960Z,3352.00
2019-05-11T06:31:33.959Z,3084.00
2019-05-11T06:32:33.944Z,2928.00
2019-05-11T06:33:33.928Z,2844.00
2019-05-11T06:34:33.917Z,2948.00
2019-05-11T06:35:33.915Z,3204.00
2019-05-11T06:36:33.899Z,3272.00
2019-05-11T06:37:33.896Z,3332.00
2019-05-11T06:38:33.874Z,3576.00
2019-05-11T06:39:33.865Z,3636.00
2019-05-11T06:40:33.854Z,3500.00
2019-05-11T06:41:33.851Z,3304.00
2019-05-11T06:42:33.833Z,3260.00
2019-05-11T06:43:33.833Z,3296.00
2019-05-11T06:44:33.812Z,3320.00
2019-05-11T06:45:33.802Z,3308.00
2019-05-11T06:46:35.078Z,3276.00
2019-05-11T06:47:33.790Z,3360.00
2019-05-11T06:48:33.771Z,3548.00
2019-05-11T06:49:33.769Z,3568.00
2019-05-11T06:50:33.747Z,3500.00
2019-05-11T06:51:33.737Z,3304.00
2019-05-11T06:52:33.726Z,3180.00
2019-05-11T06:53:33.724Z,3204.00
2019-05-11T06:54:33.705Z,3288.00
2019-05-11T06:55:33.706Z,3196.00
2019-05-11T06:56:33.683Z,3036.00
2019-05-11T06:57:33.673Z,2932.00
2019-05-11T06:58:33.663Z,2896.00
2019-05-11T06:59:33.665Z,2920.00
2019-05-11T07:00:33.641Z,2936.00
2019-05-11T07:01:33.643Z,3044.00
2019-05-11T07:02:33.621Z,3180.00
2019-05-11T07:03:33.610Z,3220.00
2019-05-11T07:04:33.596Z,3284.00
2019-05-11T07:05:33.590Z,3424.00
2019-05-11T07:06:33.578Z,3520.00
2019-05-11T07:07:46.544Z,3596.00
2019-05-11T07:08:34.554Z,3688.00
2019-05-11T07:09:33.546Z,3720.00
2019-05-11T07:10:33.533Z,3840.00
2019-05-11T07:11:33.530Z,3964.00
2019-05-11T07:12:33.518Z,4016.00
2019-05-11T07:13:33.520Z,4112.00
2019-05-11T07:14:33.491Z,4216.00
2019-05-11T07:15:33.487Z,4244.00
2019-05-11T07:16:33.472Z,4536.00
2019-05-11T07:17:33.468Z,4548.00
2019-05-11T07:18:33.449Z,4676.00
2019-05-11T07:19:33.448Z,5212.00
2019-05-11T07:20:49.142Z,5384.00
2019-05-11T07:21:34.415Z,5568.00
2019-05-11T07:22:33.404Z,5320.00
2019-05-11T07:23:33.402Z,5380.00
2019-05-11T07:24:33.384Z,5188.00
2019-05-11T07:25:33.384Z,5096.00
2019-05-11T07:26:33.361Z,5284.00
2019-05-11T07:27:33.350Z,6264.00
2019-05-11T07:28:33.339Z,6892.00
2019-05-11T07:29:33.337Z,7112.00
2019-05-11T07:30:33.317Z,7556.00
2019-05-11T07:31:33.318Z,8168.00
2019-05-11T07:32:33.296Z,9348.00
2019-05-11T07:33:33.286Z,8660.00
2019-05-11T07:34:33.276Z,8384.00
2019-05-11T07:35:33.275Z,8252.00
2019-05-11T07:36:33.254Z,8140.00
2019-05-11T07:37:33.253Z,8536.00
2019-05-11T07:38:33.233Z,7840.00
2019-05-11T07:39:33.223Z,8296.00
2019-05-11T07:40:33.210Z,9656.00
2019-05-11T07:41:33.208Z,10024.00
2019-05-11T07:42:33.189Z,8812.00
2019-05-11T07:43:33.189Z,11748.00
2019-05-11T07:44:38.288Z,10580.00
2019-05-11T07:45:34.157Z,10320.00
2019-05-11T07:46:33.146Z,9048.00
2019-05-11T07:47:33.149Z,9744.00
2019-05-11T07:48:33.124Z,10808.00
2019-05-11T07:49:33.128Z,14184.00
2019-05-11T07:50:33.103Z,13060.00
2019-05-11T07:51:33.092Z,9316.00
2019-05-11T07:52:33.081Z,9036.00
2019-05-11T07:53:33.080Z,8800.00
2019-05-11T07:54:33.060Z,8272.00
2019-05-11T07:55:33.060Z,11132.00
2019-05-11T07:56:33.039Z,8076.00
2019-05-11T07:57:33.029Z,9868.00
2019-05-11T07:58:33.019Z,7944.00
2019-05-11T07:59:33.019Z,6488.00
2019-05-11T08:00:36.375Z,6128.00
2019-05-11T08:01:33.998Z,5716.00
2019-05-11T08:02:32.976Z,5540.00
2019-05-11T08:03:32.966Z,5196.00
2019-05-11T08:04:32.954Z,5132.00
2019-05-11T08:05:32.955Z,5180.00
2019-05-11T08:06:32.933Z,5108.00
2019-05-11T08:07:32.936Z,5192.00
2019-05-11T08:08:32.911Z,5344.00
2019-05-11T08:09:32.900Z,5100.00
2019-05-11T08:10:32.890Z,5204.00
2019-05-11T08:11:32.883Z,4696.00
2019-05-11T08:12:32.868Z,4632.00
2019-05-11T08:13:32.866Z,4924.00
2019-05-11T08:14:32.847Z,5260.00
2019-05-11T08:15:32.850Z,5896.00
2019-05-11T08:16:32.823Z,6472.00
2019-05-11T08:17:32.841Z,6444.00
2019-05-11T08:18:32.801Z,6184.00
2019-05-11T08:19:32.801Z,5988.00
2019-05-11T08:20:32.779Z,6088.00
2019-05-11T08:21:32.772Z,5928.00
2019-05-11T08:22:32.758Z,5844.00
2019-05-11T08:23:32.757Z,5792.00
2019-05-11T08:24:32.736Z,5608.00
2019-05-11T08:25:32.736Z,5292.00
2019-05-11T08:26:32.715Z,4872.00
2019-05-11T08:27:32.703Z,4608.00
2019-05-11T08:28:32.692Z,4336.00
2019-05-11T08:29:32.693Z,4392.00
2019-05-11T08:30:32.684Z,4548.00
2019-05-11T08:31:32.670Z,4620.00
2019-05-11T08:32:32.650Z,4880.00
2019-05-11T08:33:32.637Z,5092.00
2019-05-11T08:34:32.627Z,5224.00
2019-05-11T08:35:32.626Z,5448.00
2019-05-11T08:36:32.607Z,5736.00
2019-05-11T08:37:32.603Z,6160.00
2019-05-11T08:38:32.583Z,6104.00
2019-05-11T08:39:32.573Z,5480.00
2019-05-11T08:40:32.562Z,5120.00
2019-05-11T08:41:32.562Z,5140.00
2019-05-11T08:42:32.540Z,5392.00
2019-05-11T08:43:32.541Z,5712.00
2019-05-11T08:44:32.518Z,5508.00
2019-05-11T08:45:32.507Z,5404.00
2019-05-11T08:46:32.495Z,5576.00
2019-05-11T08:47:32.501Z,5400.00
2019-05-11T08:48:32.476Z,5392.00
2019-05-11T08:49:32.474Z,5760.00
2019-05-11T08:50:32.453Z,6164.00
2019-05-11T08:51:32.441Z,6412.00
2019-05-11T08:52:32.431Z,6812.00
2019-05-11T08:53:32.429Z,6504.00
2019-05-11T08:54:32.409Z,6632.00
2019-05-11T08:55:32.412Z,7016.00
2019-05-11T08:56:32.388Z,7400.00
2019-05-11T08:57:32.376Z,6816.00
2019-05-11T08:58:32.365Z,6668.00
2019-05-11T08:59:32.365Z,6620.00
2019-05-11T09:00:32.344Z,6216.00
2019-05-11T09:01:32.344Z,6208.00
2019-05-11T09:02:32.322Z,5736.00
2019-05-11T09:03:32.311Z,5720.00
2019-05-11T09:04:32.302Z,5800.00
2019-05-11T09:05:32.306Z,5936.00
2019-05-11T09:06:32.280Z,6520.00
2019-05-11T09:07:32.287Z,6680.00
2019-05-11T09:08:32.304Z,6840.00
2019-05-11T09:09:32.246Z,6888.00
2019-05-11T09:10:32.236Z,6912.00
2019-05-11T09:11:32.242Z,7868.00
2019-05-11T09:12:32.214Z,7300.00
2019-05-11T09:13:32.216Z,7216.00
2019-05-11T09:14:32.195Z,7424.00
2019-05-11T09:15:37.264Z,7280.00
2019-05-11T09:16:33.170Z,7144.00
2019-05-11T09:17:32.180Z,6596.00
2019-05-11T09:18:32.150Z,5960.00
2019-05-11T09:19:32.156Z,6228.00
2019-05-11T09:20:32.131Z,6648.00
2019-05-11T09:21:32.118Z,7284.00
2019-05-11T09:22:32.108Z,7580.00
2019-05-11T09:23:37.391Z,7576.00
2019-05-11T09:24:33.096Z,7544.00
2019-05-11T09:25:32.080Z,6964.00
2019-05-11T09:26:32.070Z,7152.00
2019-05-11T09:27:32.055Z,7944.00
2019-05-11T09:28:32.044Z,7932.00
2019-05-11T09:29:32.045Z,7988.00
2019-05-11T09:30:32.037Z,7616.00
2019-05-11T09:31:32.012Z,7004.00
2019-05-11T09:32:32.002Z,6732.00
2019-05-11T09:33:31.991Z,6452.00
2019-05-11T09:34:31.983Z,6360.00
2019-05-11T09:35:46.420Z,6436.00
2019-05-11T09:36:32.994Z,6636.00
2019-05-11T09:37:31.948Z,6428.00
2019-05-11T09:38:31.938Z,6596.00
2019-05-11T09:39:31.929Z,7220.00
2019-05-11T09:40:31.917Z,7172.00
2019-05-11T09:41:31.915Z,7220.00
2019-05-11T09:42:31.906Z,7160.00
2019-05-11T09:43:31.885Z,7224.00
2019-05-11T09:44:31.875Z,7400.00
2019-05-11T09:45:44.625Z,7588.00
2019-05-11T09:46:32.974Z,7280.00
2019-05-11T09:47:31.855Z,7788.00
2019-05-11T09:48:31.947Z,7096.00
2019-05-11T09:49:43.806Z,7040.00
2019-05-11T09:50:32.815Z,6896.00
2019-05-11T09:51:31.810Z,6676.00
2019-05-11T09:52:32.583Z,6740.00
2019-05-11T09:53:31.792Z,5968.00
2019-05-11T09:54:31.777Z,5824.00
2019-05-11T09:55:31.757Z,5476.00
2019-05-11T09:56:31.746Z,5352.00
2019-05-11T09:57:31.736Z,6164.00
2019-05-11T09:58:31.725Z,5708.00
2019-05-11T09:59:31.725Z,5188.00
2019-05-11T10:00:31.718Z,5160.00
2019-05-11T10:01:31.693Z,5988.00
2019-05-11T10:02:31.681Z,6608.00
2019-05-11T10:03:31.672Z,7152.00
2019-05-11T10:04:31.660Z,7824.00
2019-05-11T10:05:31.665Z,7620.00
2019-05-11T10:06:31.649Z,6612.00
2019-05-11T10:07:32.611Z,7204.00
2019-05-11T10:08:31.622Z,7448.00
2019-05-11T10:09:31.606Z,7828.00
2019-05-11T10:10:31.595Z,7308.00
2019-05-11T10:11:31.598Z,6956.00
2019-05-11T10:12:31.584Z,6900.00
2019-05-11T10:13:31.563Z,7512.00
2019-05-11T10:14:31.553Z,8888.00
2019-05-11T10:15:31.546Z,8512.00
2019-05-11T10:16:31.541Z,10760.00
2019-05-11T10:17:31.552Z,8964.00
2019-05-11T10:18:31.526Z,9488.00
2019-05-11T10:19:31.502Z,9432.00
2019-05-11T10:20:31.488Z,8688.00
2019-05-11T10:21:31.477Z,8964.00
2019-05-11T10:22:31.466Z,9536.00
2019-05-11T10:23:31.479Z,10656.00
2019-05-11T10:24:31.455Z,11800.00
2019-05-11T10:25:31.440Z,10208.00
2019-05-11T10:26:31.435Z,9104.00
2019-05-11T10:27:31.413Z,9668.00
2019-05-11T10:28:31.402Z,9332.00
2019-05-11T10:29:33.928Z,10056.00
2019-05-11T10:30:31.391Z,7012.00
2019-05-11T10:31:31.367Z,6448.00
2019-05-11T10:32:31.356Z,5652.00
2019-05-11T10:33:31.348Z,5432.00
2019-05-11T10:34:31.349Z,5160.00
2019-05-11T10:35:31.349Z,4880.00
2019-05-11T10:36:31.330Z,4676.00
2019-05-11T10:37:31.315Z,4852.00
2019-05-11T10:38:31.292Z,5420.00
2019-05-11T10:39:31.286Z,5964.00
2019-05-11T10:40:31.269Z,6824.00
2019-05-11T10:41:31.258Z,7332.00
2019-05-11T10:42:31.270Z,7552.00
2019-05-11T10:43:31.237Z,8888.00
2019-05-11T10:44:31.226Z,7956.00
2019-05-11T10:45:31.217Z,6896.00
2019-05-11T10:46:31.205Z,7248.00
2019-05-11T10:47:31.194Z,6516.00
2019-05-11T10:48:31.203Z,6380.00
2019-05-11T10:49:31.175Z,6184.00
2019-05-11T10:50:31.163Z,6536.00
2019-05-11T10:51:31.151Z,7120.00
2019-05-11T10:52:31.149Z,7240.00
2019-05-11T10:53:31.133Z,7448.00
2019-05-11T10:54:31.184Z,7824.00
2019-05-11T10:55:31.107Z,7792.00
2019-05-11T10:56:31.099Z,7980.00
2019-05-11T10:57:31.087Z,8116.00
2019-05-11T10:58:31.075Z,8780.00
2019-05-11T10:59:31.065Z,8836.00
2019-05-11T11:00:31.074Z,8544.00
2019-05-11T11:01:31.043Z,9732.00
2019-05-11T11:02:31.038Z,9084.00
2019-05-11T11:03:31.020Z,9464.00
2019-05-11T11:04:31.009Z,8824.00
2019-05-11T11:05:30.998Z,8960.00
2019-05-11T11:06:31.012Z,8744.00
2019-05-11T11:07:30.988Z,8364.00
2019-05-11T11:08:30.967Z,8308.00
2019-05-11T11:09:30.955Z,8284.00
2019-05-11T11:10:30.945Z,8264.00
2019-05-11T11:11:30.935Z,7884.00
2019-05-11T11:12:30.961Z,7576.00
2019-05-11T11:13:30.913Z,7412.00
2019-05-11T11:14:30.904Z,7132.00
2019-05-11T11:15:30.892Z,6824.00
2019-05-11T11:16:39.351Z,7032.00
2019-05-11T11:17:31.882Z,7132.00
2019-05-11T11:18:30.870Z,7132.00
2019-05-11T11:19:30.846Z,6948.00
2019-05-11T11:20:30.837Z,6724.00
2019-05-11T11:21:30.829Z,7044.00
2019-05-11T11:22:39.399Z,7236.00
2019-05-11T11:23:31.819Z,7136.00
2019-05-11T11:24:30.825Z,7052.00
2019-05-11T11:25:30.790Z,7028.00
2019-05-11T11:26:30.774Z,6832.00
2019-05-11T11:27:30.763Z,6912.00
2019-05-11T11:28:30.758Z,7088.00
2019-05-11T11:29:30.758Z,7148.00
2019-05-11T11:30:30.745Z,7120.00
2019-05-11T11:31:30.720Z,7208.00
2019-05-11T11:32:30.708Z,7484.00
2019-05-11T11:33:30.699Z,7604.00
2019-05-11T11:34:30.709Z,7976.00
2019-05-11T11:35:30.687Z,8324.00
2019-05-11T11:36:30.694Z,8264.00
2019-05-11T11:37:30.657Z,8148.00
2019-05-11T11:38:30.645Z,8112.00
2019-05-11T11:39:30.634Z,8224.00
2019-05-11T11:40:30.627Z,8412.00
2019-05-11T11:41:30.630Z,8684.00
2019-05-11T11:42:30.613Z,8704.00
2019-05-11T11:43:30.591Z,8232.00
2019-05-11T11:44:30.579Z,7800.00
2019-05-11T11:45:30.579Z,7492.00
2019-05-11T11:46:30.557Z,7376.00
2019-05-11T11:47:30.556Z,7596.00
2019-05-11T11:48:30.546Z,7584.00
2019-05-11T11:49:30.528Z,7472.00
2019-05-11T11:50:30.513Z,7312.00
2019-05-11T11:51:30.504Z,7476.00
2019-05-11T11:52:30.492Z,8268.00
2019-05-11T11:53:30.501Z,8716.00
2019-05-11T11:54:30.483Z,8512.00
2019-05-11T11:55:30.465Z,8624.00
2019-05-11T11:56:30.450Z,7728.00
2019-05-11T11:57:30.439Z,6920.00
2019-05-11T11:58:30.428Z,7024.00
2019-05-11T11:59:30.429Z,7236.00
2019-05-11T12:00:30.415Z,6700.00
2019-05-11T12:01:30.399Z,6348.00
2019-05-11T12:02:30.386Z,6336.00
2019-05-11T12:03:30.376Z,6000.00
2019-05-11T12:04:30.366Z,5608.00
2019-05-11T12:05:30.365Z,5256.00
2019-05-11T12:06:30.355Z,4796.00
2019-05-11T12:07:30.333Z,4888.00
2019-05-11T12:08:30.324Z,5156.00
2019-05-11T12:09:30.311Z,5524.00
2019-05-11T12:10:30.300Z,6196.00
2019-05-11T12:11:30.300Z,6572.00
2019-05-11T12:12:30.296Z,6784.00
2019-05-11T12:13:30.271Z,6916.00
2019-05-11T12:14:30.257Z,7320.00
2019-05-11T12:15:30.245Z,7488.00
2019-05-11T12:16:30.235Z,7824.00
2019-05-11T12:17:30.244Z,8100.00
2019-05-11T12:18:30.230Z,7528.00
2019-05-11T12:19:30.202Z,6760.00
2019-05-11T12:20:30.193Z,5768.00
2019-05-11T12:21:30.181Z,5712.00
2019-05-11T12:22:30.173Z,5796.00
2019-05-11T12:23:30.179Z,5736.00
2019-05-11T12:24:30.160Z,5732.00
2019-05-11T12:25:30.135Z,5536.00
2019-05-11T12:26:30.125Z,5444.00
2019-05-11T12:27:30.114Z,5708.00
2019-05-11T12:28:30.121Z,6188.00